Time;durP1;ratioP1;P1;durP2;ratioP2;P2;SDS_P1;SDS_P2;PMS_P1;PMS_P2;Temp;Humidity;BMP_temperature;BMP_pressure;BME280_temperature;BME280_humidity;BME280_pressure;Samples;Min_cycle;Max_cycle;Signal;HPM_P1;HPM_P2
2023/05/13 00:00:56;;;;;;;9.55;4.57;;;15.50;99.90;;;;;;5094330;28;20035;-36
2023/05/13 00:03:22;;;;;;;6.22;4.15;;;15.50;99.90;;;;;;5094006;28;20054;-35
2023/05/13 00:05:47;;;;;;;5.63;4.03;;;15.40;99.90;;;;;;5109109;28;20019;-33
2023/05/13 00:08:13;;;;;;;5.88;3.28;;;15.40;99.90;;;;;;5113215;28;20049;-35
2023/05/13 00:10:39;;;;;;;5.72;4.10;;;15.40;99.90;;;;;;5114144;28;20028;-36
2023/05/13 00:13:04;;;;;;;5.45;3.90;;;15.40;99.90;;;;;;5094563;28;20108;-39
2023/05/13 00:15:30;;;;;;;5.72;3.90;;;15.30;99.90;;;;;;5094080;28;20038;-38
2023/05/13 00:17:56;;;;;;;4.15;3.75;;;15.20;99.90;;;;;;5093811;28;20059;-33
2023/05/13 00:20:21;;;;;;;5.78;3.55;;;15.20;99.90;;;;;;5093897;28;20024;-38
2023/05/13 00:22:47;;;;;;;7.82;4.10;;;15.10;99.90;;;;;;5093155;28;20024;-37
2023/05/13 00:25:13;;;;;;;7.40;4.18;;;15.00;99.90;;;;;;5093635;28;20107;-37
2023/05/13 00:27:39;;;;;;;4.82;3.90;;;15.00;99.90;;;;;;5097346;28;20035;-33
2023/05/13 00:30:05;;;;;;;5.93;3.75;;;15.00;99.90;;;;;;5097020;28;20015;-38
2023/05/13 00:32:31;;;;;;;4.10;3.20;;;14.90;99.90;;;;;;5093543;28;20110;-39
2023/05/13 00:34:57;;;;;;;4.28;3.22;;;14.90;99.90;;;;;;5098485;28;20117;-35
2023/05/13 00:37:23;;;;;;;4.35;3.35;;;14.80;99.90;;;;;;5104899;28;20024;-36
2023/05/13 00:39:48;;;;;;;9.95;3.47;;;14.80;99.90;;;;;;5093403;28;20150;-33
2023/05/13 00:42:14;;;;;;;4.65;3.38;;;14.70;99.90;;;;;;5100833;28;20039;-38
2023/05/13 00:44:40;;;;;;;4.78;3.20;;;14.70;99.90;;;;;;5111152;28;20426;-36
2023/05/13 00:47:06;;;;;;;3.50;2.60;;;14.70;99.90;;;;;;5102452;28;20384;-34
2023/05/13 00:49:32;;;;;;;3.10;2.67;;;14.70;99.90;;;;;;5111913;27;20031;-37
2023/05/13 00:51:58;;;;;;;3.92;3.38;;;14.70;99.90;;;;;;5097004;28;20103;-36
2023/05/13 00:54:24;;;;;;;5.85;2.65;;;14.70;99.90;;;;;;5092184;28;20046;-35
2023/05/13 00:56:55;;;;;;;6.07;3.72;;;14.70;99.90;;;;;;5106681;28;20023;-38
2023/05/13 00:59:25;;;;;;;8.57;2.78;;;14.70;99.90;;;;;;5112476;28;20023;-37
2023/05/13 01:01:53;;;;;;;12.30;3.20;;;14.70;99.90;;;;;;5108896;28;20031;-39
2023/05/13 01:04:53;;;;;;;5.25;3.20;;;14.70;99.90;;;;;;5103408;28;20026;-33
2023/05/13 01:07:28;;;;;;;6.60;3.00;;;14.70;99.90;;;;;;5113031;28;20071;-38
2023/05/13 01:09:56;;;;;;;9.45;2.97;;;14.60;99.90;;;;;;5113528;27;20498;-37
2023/05/13 01:12:43;;;;;;;4.57;2.80;;;14.60;99.90;;;;;;5099949;28;20028;-36
2023/05/13 01:15:14;;;;;;;6.35;3.33;;;14.50;99.90;;;;;;5092528;28;20081;-37
2023/05/13 01:17:51;;;;;;;7.45;3.03;;;14.50;99.90;;;;;;5093280;28;20024;-31
2023/05/13 01:20:21;;;;;;;5.40;3.25;;;14.40;99.90;;;;;;5092931;28;20361;-34
2023/05/13 01:22:46;;;;;;;6.18;3.00;;;14.40;99.90;;;;;;5105986;28;20032;-37
2023/05/13 01:25:12;;;;;;;8.70;3.50;;;14.30;99.90;;;;;;5113115;28;20027;-33
2023/05/13 01:27:38;;;;;;;3.78;2.85;;;14.20;99.90;;;;;;5111742;28;20016;-37
2023/05/13 01:30:05;;;;;;;9.05;2.90;;;14.20;99.90;;;;;;5113134;28;20024;-33
2023/05/13 01:32:32;;;;;;;4.97;3.13;;;14.20;99.90;;;;;;5113135;28;20475;-35
2023/05/13 01:34:58;;;;;;;2.88;2.63;;;14.20;99.90;;;;;;5098510;28;20469;-36
2023/05/13 01:37:24;;;;;;;5.32;3.03;;;14.10;99.90;;;;;;5092968;28;20496;-35
2023/05/13 01:39:50;;;;;;;3.72;3.35;;;14.10;99.90;;;;;;5092669;28;20056;-33
2023/05/13 01:42:16;;;;;;;8.50;3.45;;;14.10;99.90;;;;;;5096860;28;20035;-31
2023/05/13 01:44:42;;;;;;;4.57;3.58;;;14.10;99.90;;;;;;5110492;28;20392;-35
2023/05/13 01:47:07;;;;;;;4.50;3.70;;;14.10;99.90;;;;;;5092961;28;20466;-36
2023/05/13 01:49:33;;;;;;;3.85;3.08;;;14.00;99.90;;;;;;5103622;28;20032;-37
2023/05/13 01:51:58;;;;;;;3.80;3.15;;;14.00;99.90;;;;;;5103773;28;20023;-33
2023/05/13 01:54:24;;;;;;;5.65;2.72;;;14.00;99.90;;;;;;5112722;28;20106;-31
2023/05/13 01:56:51;;;;;;;8.38;4.25;;;14.00;99.90;;;;;;5097419;28;20035;-33
2023/05/13 01:59:17;;;;;;;8.63;3.67;;;14.10;99.90;;;;;;5104586;28;20031;-38
2023/05/13 02:01:44;;;;;;;4.78;3.47;;;14.00;99.90;;;;;;5108687;28;20539;-38
2023/05/13 02:04:10;;;;;;;3.80;3.15;;;14.00;99.90;;;;;;5093426;28;20489;-37
2023/05/13 02:06:36;;;;;;;7.78;3.85;;;14.00;99.90;;;;;;5092375;28;20534;-36
2023/05/13 02:09:01;;;;;;;13.45;3.78;;;14.00;99.90;;;;;;5102008;28;20098;-38
2023/05/13 02:11:27;;;;;;;4.28;3.55;;;14.00;99.90;;;;;;5102781;28;20076;-32
2023/05/13 02:13:52;;;;;;;4.53;3.72;;;14.00;99.90;;;;;;5096147;28;20028;-33
2023/05/13 02:16:19;;;;;;;14.95;4.97;;;14.00;99.90;;;;;;5091110;28;20496;-37
2023/05/13 02:18:45;;;;;;;6.03;4.20;;;14.00;99.90;;;;;;5092359;28;20164;-37
2023/05/13 02:21:10;;;;;;;6.18;4.10;;;14.00;99.90;;;;;;5092345;28;20595;-39
2023/05/13 02:23:36;;;;;;;7.05;4.05;;;13.90;99.90;;;;;;5105350;28;20031;-33
2023/05/13 02:26:02;;;;;;;5.55;3.47;;;13.90;99.90;;;;;;5110129;28;20020;-37
2023/05/13 02:28:28;;;;;;;6.82;4.10;;;13.90;99.90;;;;;;5113998;28;20027;-33
2023/05/13 02:30:53;;;;;;;8.32;4.07;;;13.80;99.90;;;;;;5116480;28;20534;-31
2023/05/13 02:33:19;;;;;;;7.78;4.20;;;13.80;99.90;;;;;;5114796;28;20024;-33
2023/05/13 02:35:45;;;;;;;14.40;4.60;;;13.80;99.90;;;;;;5103423;28;20024;-34
2023/05/13 02:38:10;;;;;;;6.50;4.28;;;13.70;99.90;;;;;;5095543;28;20122;-36
2023/05/13 02:40:36;;;;;;;6.07;5.50;;;13.70;99.90;;;;;;5100258;28;20031;-35
2023/05/13 02:43:02;;;;;;;17.83;5.30;;;13.70;99.90;;;;;;5113623;28;20244;-32
2023/05/13 02:45:28;;;;;;;6.55;4.72;;;13.70;99.90;;;;;;5116131;28;20019;-33
2023/05/13 02:47:54;;;;;;;5.50;4.60;;;13.70;99.90;;;;;;5109929;28;20376;-33
2023/05/13 02:50:20;;;;;;;13.60;5.00;;;13.70;99.90;;;;;;5101697;28;20027;-35
2023/05/13 02:52:46;;;;;;;9.20;5.25;;;13.70;99.90;;;;;;5095353;28;20107;-35
2023/05/13 02:55:11;;;;;;;11.23;5.03;;;13.70;99.90;;;;;;5095584;28;20057;-39
2023/05/13 02:57:37;;;;;;;9.82;5.95;;;13.70;99.90;;;;;;5103686;28;20020;-35
2023/05/13 03:00:04;;;;;;;7.47;4.22;;;13.70;99.90;;;;;;5110570;28;20039;-31
2023/05/13 03:02:31;;;;;;;6.70;5.32;;;13.60;99.90;;;;;;5115582;28;20439;-35
2023/05/13 03:04:57;;;;;;;5.80;5.17;;;13.60;99.90;;;;;;5105783;28;20522;-39
2023/05/13 03:07:23;;;;;;;6.40;5.00;;;13.60;99.90;;;;;;5115327;28;20047;-35
2023/05/13 03:09:49;;;;;;;8.40;5.32;;;13.60;99.90;;;;;;5115481;28;20027;-34
2023/05/13 03:12:14;;;;;;;13.43;7.18;;;13.50;99.90;;;;;;5113492;28;20551;-34
2023/05/13 03:14:41;;;;;;;12.95;5.80;;;13.50;99.90;;;;;;5111785;28;20020;-33
2023/05/13 03:17:07;;;;;;;8.18;4.05;;;13.50;99.90;;;;;;5095260;28;20498;-36
2023/05/13 03:19:34;;;;;;;7.40;5.82;;;13.50;99.90;;;;;;5094503;28;20027;-36
2023/05/13 03:22:00;;;;;;;9.70;5.55;;;13.50;99.90;;;;;;5099983;28;20032;-39
2023/05/13 03:24:26;;;;;;;7.07;5.53;;;13.50;99.90;;;;;;5100761;28;20081;-35
2023/05/13 03:26:51;;;;;;;14.43;5.55;;;13.40;99.90;;;;;;5094749;28;20103;-37
2023/05/13 03:29:17;;;;;;;10.38;5.78;;;13.40;99.90;;;;;;5095248;28;20510;-33
2023/05/13 03:31:43;;;;;;;9.20;5.55;;;13.40;99.90;;;;;;5095111;28;20484;-39
2023/05/13 03:34:09;;;;;;;8.10;6.00;;;13.40;99.90;;;;;;5108803;28;20012;-34
2023/05/13 03:36:34;;;;;;;9.07;5.57;;;13.40;99.90;;;;;;5098916;28;20174;-33
2023/05/13 03:39:00;;;;;;;9.07;6.72;;;13.40;99.90;;;;;;5093685;28;20125;-32
2023/05/13 03:41:27;;;;;;;9.10;6.70;;;13.30;99.90;;;;;;5101945;28;20064;-36
2023/05/13 03:43:53;;;;;;;9.02;6.53;;;13.40;99.90;;;;;;5109461;28;20027;-34
2023/05/13 03:46:20;;;;;;;10.02;6.32;;;13.30;99.90;;;;;;5115010;28;20487;-35
2023/05/13 03:48:45;;;;;;;10.52;6.35;;;13.30;99.90;;;;;;5101906;28;20030;-36
2023/05/13 03:51:11;;;;;;;10.73;7.50;;;13.30;99.90;;;;;;5098475;28;20012;-37
2023/05/13 03:53:37;;;;;;;7.63;6.10;;;13.30;99.90;;;;;;5102982;28;20023;-36
2023/05/13 03:56:02;;;;;;;10.25;6.20;;;13.30;99.90;;;;;;5104621;28;20105;-36
2023/05/13 03:58:28;;;;;;;12.52;7.15;;;13.30;99.90;;;;;;5097551;28;20035;-35
2023/05/13 04:00:54;;;;;;;11.27;7.50;;;13.30;99.90;;;;;;5103023;28;20526;-33
2023/05/13 04:03:19;;;;;;;12.05;7.75;;;13.30;99.90;;;;;;5099156;28;20117;-35
2023/05/13 04:05:45;;;;;;;12.32;7.75;;;13.30;99.90;;;;;;5099745;28;20126;-34
2023/05/13 04:08:11;;;;;;;13.10;8.18;;;13.20;99.90;;;;;;5109020;28;20476;-38
2023/05/13 04:10:37;;;;;;;12.77;8.00;;;13.20;99.90;;;;;;5114217;28;20016;-35
2023/05/13 04:13:03;;;;;;;15.18;8.05;;;13.20;99.90;;;;;;5114236;28;20088;-38
2023/05/13 04:15:30;;;;;;;12.23;7.75;;;13.20;99.90;;;;;;5114091;28;20084;-35
2023/05/13 04:17:56;;;;;;;12.90;8.50;;;13.20;99.90;;;;;;5099690;27;20464;-39
2023/05/13 04:20:22;;;;;;;10.98;7.45;;;13.20;99.90;;;;;;5107404;28;20285;-34
2023/05/13 04:22:48;;;;;;;11.35;7.90;;;13.10;99.90;;;;;;5093657;28;20035;-36
2023/05/13 04:25:14;;;;;;;12.05;8.02;;;13.00;99.90;;;;;;5093676;28;20481;-33
2023/05/13 04:27:39;;;;;;;11.38;7.72;;;13.00;99.90;;;;;;5100924;28;20016;-38
2023/05/13 04:30:06;;;;;;;12.48;8.60;;;13.00;99.90;;;;;;5092536;28;20020;-32
2023/05/13 04:32:31;;;;;;;12.00;8.23;;;12.90;99.90;;;;;;5093811;28;20472;-32
2023/05/13 04:34:57;;;;;;;13.95;8.27;;;12.90;99.90;;;;;;5092843;28;20028;-34
2023/05/13 04:37:23;;;;;;;21.98;9.23;;;13.00;99.90;;;;;;5094011;28;20032;-38
2023/05/13 04:39:48;;;;;;;12.25;8.20;;;13.00;99.90;;;;;;5093608;28;20020;-38
2023/05/13 04:42:15;;;;;;;13.15;8.05;;;13.00;99.90;;;;;;5093285;28;20082;-36
2023/05/13 04:44:41;;;;;;;19.95;8.52;;;13.00;99.90;;;;;;5093243;28;20051;-33
2023/05/13 04:47:07;;;;;;;16.27;9.05;;;13.00;99.90;;;;;;5109695;28;20058;-37
2023/05/13 04:49:33;;;;;;;19.77;8.30;;;13.00;99.90;;;;;;5113860;28;20449;-38
2023/05/13 04:52:00;;;;;;;13.20;8.60;;;13.00;99.90;;;;;;5099916;28;20389;-37
2023/05/13 04:54:26;;;;;;;11.40;8.40;;;13.10;99.90;;;;;;5101963;28;20074;-38
2023/05/13 04:56:52;;;;;;;13.57;8.27;;;13.10;99.90;;;;;;5093362;28;20061;-37
2023/05/13 04:59:17;;;;;;;15.00;8.30;;;13.10;99.90;;;;;;5093122;28;20024;-36
2023/05/13 05:01:43;;;;;;;15.23;9.45;;;13.10;99.90;;;;;;5092981;28;20032;-37
2023/05/13 05:04:09;;;;;;;17.58;8.48;;;13.20;99.90;;;;;;5092573;28;20361;-36
2023/05/13 05:06:35;;;;;;;11.98;8.23;;;13.20;99.90;;;;;;5092828;28;20047;-36
2023/05/13 05:09:00;;;;;;;15.68;9.13;;;13.20;99.90;;;;;;5093031;28;20480;-34
2023/05/13 05:11:26;;;;;;;17.88;9.55;;;13.20;99.90;;;;;;5096679;28;20103;-35
2023/05/13 05:13:51;;;;;;;14.77;8.93;;;13.20;99.90;;;;;;5096703;28;20034;-35
2023/05/13 05:16:17;;;;;;;12.75;8.00;;;13.20;99.90;;;;;;5113311;28;20495;-36
2023/05/13 05:18:43;;;;;;;28.30;8.75;;;13.20;99.90;;;;;;5113298;28;20399;-35
2023/05/13 05:21:09;;;;;;;12.48;8.32;;;13.20;99.90;;;;;;5101809;28;20114;-34
2023/05/13 05:23:35;;;;;;;12.10;7.97;;;13.30;99.90;;;;;;5092799;28;20419;-38
2023/05/13 05:26:02;;;;;;;18.52;8.65;;;13.30;99.90;;;;;;5099190;28;20031;-32
2023/05/13 05:28:28;;;;;;;14.20;8.60;;;13.40;99.90;;;;;;5113263;28;20484;-38
2023/05/13 05:30:54;;;;;;;14.15;9.20;;;13.50;99.90;;;;;;5111363;28;20281;-35
2023/05/13 05:33:20;;;;;;;24.20;8.68;;;13.50;99.90;;;;;;5101876;28;20077;-34
2023/05/13 05:35:46;;;;;;;14.02;7.95;;;13.60;99.90;;;;;;5102793;28;20032;-34
2023/05/13 05:38:11;;;;;;;14.20;7.97;;;13.60;99.90;;;;;;5092982;28;20024;-31
2023/05/13 05:40:43;;;;;;;12.52;7.30;;;13.60;99.90;;;;;;5093490;28;20035;-36
2023/05/13 05:43:12;;;;;;;10.50;7.38;;;13.70;99.90;;;;;;5091413;28;20397;-36
2023/05/13 05:45:39;;;;;;;12.90;6.90;;;13.80;99.90;;;;;;5111692;27;20031;-38
2023/05/13 05:48:05;;;;;;;14.27;7.13;;;13.80;99.90;;;;;;5099057;28;20106;-37
2023/05/13 05:50:32;;;;;;;11.02;7.20;;;13.90;99.90;;;;;;5098744;28;20028;-33
2023/05/13 05:52:58;;;;;;;8.83;6.43;;;13.90;99.90;;;;;;5092458;28;20044;-37
2023/05/13 05:55:25;;;;;;;10.75;7.28;;;14.00;99.90;;;;;;5092331;28;20777;-35
2023/05/13 05:57:50;;;;;;;8.88;6.03;;;14.00;99.90;;;;;;5092597;28;20114;-34
2023/05/13 06:00:17;;;;;;;12.45;6.43;;;14.10;99.90;;;;;;5092587;28;20030;-33
2023/05/13 06:02:43;;;;;;;11.80;6.77;;;14.20;99.90;;;;;;5103550;28;20433;-35
2023/05/13 06:05:09;;;;;;;12.95;6.55;;;14.30;99.90;;;;;;5111479;28;20024;-35
2023/05/13 06:07:34;;;;;;;8.88;5.57;;;14.40;99.90;;;;;;5116592;28;20044;-37
2023/05/13 06:10:00;;;;;;;10.57;5.53;;;14.40;99.90;;;;;;5116689;28;20502;-38
2023/05/13 06:12:26;;;;;;;11.60;5.45;;;14.50;99.90;;;;;;5115468;28;20537;-35
2023/05/13 06:14:51;;;;;;;10.32;5.88;;;14.70;99.90;;;;;;5104193;28;20146;-35
2023/05/13 06:17:17;;;;;;;10.43;5.53;;;15.00;99.90;;;;;;5096951;28;20020;-35
2023/05/13 06:19:43;;;;;;;7.35;5.25;;;15.40;99.90;;;;;;5101018;28;20024;-36
2023/05/13 06:22:11;;;;;;;7.28;4.93;;;15.60;99.90;;;;;;5096753;28;20132;-35
2023/05/13 06:24:43;;;;;;;12.77;4.60;;;15.60;99.90;;;;;;5095755;28;20031;-37
2023/05/13 06:27:09;;;;;;;6.30;4.78;;;15.50;99.90;;;;;;5108633;28;20480;-37
2023/05/13 06:29:35;;;;;;;11.15;4.63;;;15.50;99.90;;;;;;5094467;28;20438;-40
2023/05/13 06:32:00;;;;;;;6.47;4.75;;;15.50;99.90;;;;;;5113576;28;20035;-33
2023/05/13 06:34:26;;;;;;;7.22;5.07;;;15.70;99.90;;;;;;5116107;28;20016;-38
2023/05/13 06:36:52;;;;;;;9.15;5.20;;;16.60;99.90;;;;;;5097805;28;20028;-37
2023/05/13 06:39:18;;;;;;;9.82;5.13;;;17.70;99.90;;;;;;5110134;28;20036;-33
2023/05/13 06:41:44;;;;;;;8.20;5.68;;;18.80;99.90;;;;;;5115939;28;20027;-35
2023/05/13 06:44:09;;;;;;;11.23;5.30;;;19.50;99.90;;;;;;5105482;28;20496;-36
2023/05/13 06:46:35;;;;;;;12.07;5.65;;;20.10;99.90;;;;;;5104051;28;20026;-35
2023/05/13 06:49:01;;;;;;;6.47;4.95;;;20.80;99.90;;;;;;5115944;28;20023;-38
2023/05/13 06:51:27;;;;;;;5.35;4.55;;;21.20;99.90;;;;;;5109114;28;20157;-37
2023/05/13 06:53:53;;;;;;;7.07;3.92;;;21.50;99.90;;;;;;5108614;28;20076;-37
2023/05/13 06:56:21;;;;;;;6.22;4.53;;;21.60;99.90;;;;;;5114212;28;20061;-36
2023/05/13 06:58:48;;;;;;;7.40;4.20;;;21.70;99.90;;;;;;5115992;28;20032;-38
2023/05/13 07:01:14;;;;;;;7.95;4.47;;;21.80;99.90;;;;;;5103186;28;20103;-37
2023/05/13 07:03:40;;;;;;;6.20;4.30;;;21.80;99.90;;;;;;5095421;28;20081;-38
2023/05/13 07:06:06;;;;;;;3.83;3.50;;;21.70;99.90;;;;;;5104611;28;20476;-36
2023/05/13 07:08:31;;;;;;;4.68;4.00;;;21.60;99.90;;;;;;5105378;28;20032;-38
2023/05/13 07:10:57;;;;;;;10.02;3.85;;;21.60;99.90;;;;;;5094383;28;20020;-40
2023/05/13 07:13:25;;;;;;;9.23;4.35;;;21.50;99.90;;;;;;5095106;28;20059;-38
2023/05/13 07:15:51;;;;;;;7.32;4.45;;;21.10;99.90;;;;;;5104797;28;20027;-38
2023/05/13 07:18:20;;;;;;;8.10;4.30;;;20.50;99.90;;;;;;5094142;28;20438;-39
2023/05/13 07:20:46;;;;;;;16.33;4.35;;;20.00;99.90;;;;;;5093934;28;20031;-37
2023/05/13 07:23:11;;;;;;;11.07;4.30;;;19.50;99.90;;;;;;5108935;28;20484;-38
2023/05/13 07:25:37;;;;;;;8.20;4.30;;;19.20;99.90;;;;;;5107634;28;20013;-34
2023/05/13 07:28:03;;;;;;;7.53;4.07;;;18.80;99.90;;;;;;5094740;28;20103;-38
2023/05/13 07:30:29;;;;;;;7.70;4.63;;;18.40;99.90;;;;;;5094703;28;20017;-33
2023/05/13 07:32:54;;;;;;;8.35;4.63;;;18.20;99.90;;;;;;5094243;28;20385;-36
2023/05/13 07:35:21;;;;;;;6.78;4.07;;;18.00;99.90;;;;;;5097381;28;20020;-34
2023/05/13 07:37:46;;;;;;;10.30;4.63;;;17.90;99.90;;;;;;5094587;28;20047;-33
2023/05/13 07:40:12;;;;;;;6.53;4.43;;;17.90;99.90;;;;;;5094378;28;20381;-35
2023/05/13 07:42:39;;;;;;;4.70;4.15;;;18.10;99.90;;;;;;5095488;28;20039;-35
2023/05/13 07:45:06;;;;;;;8.15;4.28;;;18.10;99.90;;;;;;5094262;28;20023;-35
2023/05/13 07:47:32;;;;;;;6.38;4.53;;;18.00;99.90;;;;;;5096395;28;20028;-36
2023/05/13 07:49:58;;;;;;;15.13;4.50;;;18.00;99.90;;;;;;5097974;28;20089;-37
2023/05/13 07:52:24;;;;;;;11.80;4.13;;;18.10;99.90;;;;;;5111142;28;20107;-38
2023/05/13 07:54:49;;;;;;;12.23;4.25;;;18.00;99.90;;;;;;5114630;28;20442;-38
2023/05/13 07:57:15;;;;;;;10.05;4.70;;;18.00;99.90;;;;;;5114558;28;20433;-32
2023/05/13 07:59:41;;;;;;;7.13;3.83;;;17.90;99.90;;;;;;5106891;28;20077;-37
2023/05/13 08:02:07;;;;;;;13.10;3.67;;;17.90;99.90;;;;;;5094140;28;20035;-34
2023/05/13 08:04:33;;;;;;;4.50;3.47;;;18.10;99.90;;;;;;5096541;28;20095;-41
2023/05/13 08:07:00;;;;;;;6.13;3.80;;;18.10;99.90;;;;;;5108738;28;20114;-39
2023/05/13 08:09:26;;;;;;;11.95;3.92;;;18.20;99.90;;;;;;5098541;28;20080;-35
2023/05/13 08:11:51;;;;;;;9.43;4.07;;;18.20;99.90;;;;;;5099720;28;20411;-34
2023/05/13 08:14:17;;;;;;;5.53;4.00;;;18.20;99.90;;;;;;5094820;28;20023;-37
2023/05/13 08:16:43;;;;;;;7.03;4.25;;;18.30;99.90;;;;;;5114167;28;20023;-41
2023/05/13 08:19:08;;;;;;;3.85;3.45;;;18.30;99.90;;;;;;5113055;28;20039;-43
2023/05/13 08:21:34;;;;;;;7.72;4.15;;;18.50;99.90;;;;;;5112979;28;20027;-43
2023/05/13 08:24:00;;;;;;;5.70;3.75;;;18.90;99.90;;;;;;5109915;28;20158;-41
2023/05/13 08:26:26;;;;;;;5.20;3.78;;;19.10;99.90;;;;;;5092788;28;20376;-49
2023/05/13 08:28:51;;;;;;;6.82;3.72;;;19.20;99.90;;;;;;5096229;28;20533;-46
2023/05/13 08:31:17;;;;;;;7.82;3.97;;;19.30;99.90;;;;;;5113932;28;20023;-43
2023/05/13 08:33:46;;;;;;;6.55;4.00;;;19.40;99.90;;;;;;5112649;28;20502;-37
2023/05/13 08:36:11;;;;;;;5.78;3.67;;;19.60;99.90;;;;;;5090572;28;20039;-41
2023/05/13 08:38:37;;;;;;;9.52;3.65;;;19.60;99.90;;;;;;5095575;28;20031;-43
2023/05/13 08:41:05;;;;;;;5.82;4.15;;;19.90;99.90;;;;;;5112498;28;20039;-43
2023/05/13 08:43:31;;;;;;;;;;;20.10;99.90;;;;;;5108489;28;20077;-46
2023/05/13 08:46:02;;;;;;;5.85;3.63;;;20.40;99.90;;;;;;5107223;28;19915;-45
2023/05/13 08:48:29;;;;;;;5.57;3.67;;;20.60;99.90;;;;;;5113522;28;20027;-43
2023/05/13 08:50:56;;;;;;;11.98;3.97;;;20.60;99.90;;;;;;5103468;28;20464;-40
2023/05/13 08:53:25;;;;;;;12.23;4.87;;;20.60;99.90;;;;;;5092793;28;20085;-42
2023/05/13 08:55:51;;;;;;;3.83;3.35;;;20.70;99.90;;;;;;5101142;28;20465;-42
2023/05/13 08:58:16;;;;;;;8.05;3.55;;;20.70;99.90;;;;;;5102055;28;20111;-43
2023/05/13 09:00:42;;;;;;;10.70;4.47;;;21.10;99.90;;;;;;5105130;28;20293;-43
2023/05/13 09:03:08;;;;;;;9.48;3.70;;;21.50;99.90;;;;;;5092465;28;20024;-44
2023/05/13 09:05:35;;;;;;;6.90;3.80;;;21.50;99.90;;;;;;5093471;28;20034;-42
2023/05/13 09:08:10;;;;;;;6.85;4.43;;;21.40;99.90;;;;;;5112963;28;20042;-43
2023/05/13 09:10:36;;;;;;;4.40;3.80;;;21.10;99.90;;;;;;5104284;28;20511;-45
2023/05/13 09:13:02;;;;;;;12.65;3.85;;;20.90;99.90;;;;;;5092966;28;20048;-45
2023/05/13 09:15:28;;;;;;;8.93;3.80;;;20.70;99.90;;;;;;5095585;28;20082;-42
2023/05/13 09:17:57;;;;;;;5.88;3.70;;;20.40;99.90;;;;;;5113130;28;20023;-43
2023/05/13 09:20:24;;;;;;;5.63;4.07;;;20.40;99.90;;;;;;5100716;28;20036;-42
2023/05/13 09:23:05;;;;;;;9.40;4.32;;;20.60;99.90;;;;;;5095614;28;20028;-45
2023/05/13 09:25:31;;;;;;;6.63;4.07;;;20.70;99.90;;;;;;5090755;28;20538;-42
2023/05/13 09:28:02;;;;;;;7.32;5.10;;;20.70;99.90;;;;;;5093055;28;20028;-42
2023/05/13 09:30:33;;;;;;;9.20;4.13;;;20.80;99.90;;;;;;5092353;28;20116;-44
2023/05/13 09:33:18;;;;;;;4.05;3.65;;;20.90;99.90;;;;;;5102338;28;20465;-44
2023/05/13 09:35:52;;;;;;;5.18;3.67;;;20.90;99.90;;;;;;5093779;28;20027;-42
2023/05/13 09:38:24;;;;;;;9.40;4.25;;;21.10;99.90;;;;;;5110438;28;20026;-41
2023/05/13 09:40:55;;;;;;;6.25;4.25;;;21.30;99.90;;;;;;5111809;28;20477;-41
2023/05/13 09:43:25;;;;;;;7.57;4.32;;;21.20;99.90;;;;;;5113996;28;20036;-33
2023/05/13 09:45:56;;;;;;;7.72;4.32;;;21.20;99.90;;;;;;5096259;28;20065;-36
2023/05/13 09:48:24;;;;;;;7.97;4.05;;;21.20;99.90;;;;;;5104286;28;20448;-34
2023/05/13 09:50:52;;;;;;;12.18;4.18;;;21.20;99.90;;;;;;5100048;28;20472;-34
2023/05/13 09:53:21;;;;;;;7.47;4.47;;;21.40;99.90;;;;;;5096572;28;20464;-35
2023/05/13 09:55:48;;;;;;;7.53;4.35;;;21.30;99.90;;;;;;5096289;28;20028;-35
2023/05/13 09:58:14;;;;;;;9.40;3.78;;;21.30;99.90;;;;;;5098074;28;20495;-34
2023/05/13 10:00:41;;;;;;;7.50;3.83;;;21.30;99.90;;;;;;5095880;28;20069;-36
2023/05/13 10:03:07;;;;;;;13.33;4.60;;;21.10;99.90;;;;;;5096185;28;20561;-39
2023/05/13 10:05:33;;;;;;;12.02;4.72;;;20.50;99.90;;;;;;5097753;28;20047;-33
2023/05/13 10:08:02;;;;;;;13.27;4.40;;;20.30;99.90;;;;;;5095523;28;20044;-35
2023/05/13 10:10:33;;;;;;;7.30;4.80;;;20.40;99.90;;;;;;5095680;28;20536;-37
2023/05/13 10:13:04;;;;;;;7.75;4.80;;;20.70;99.90;;;;;;5106400;28;20024;-39
2023/05/13 10:15:30;;;;;;;7.07;4.82;;;20.80;99.90;;;;;;5102655;28;20027;-36
2023/05/13 10:17:57;;;;;;;5.22;4.20;;;20.70;99.90;;;;;;5112590;28;20026;-37
2023/05/13 10:20:26;;;;;;;7.93;4.30;;;20.80;99.90;;;;;;5109180;28;20496;-36
2023/05/13 10:22:53;;;;;;;8.57;4.72;;;21.10;99.90;;;;;;5111276;28;20500;-34
2023/05/13 10:25:19;;;;;;;5.07;4.05;;;21.20;99.90;;;;;;5110901;28;20024;-34
2023/05/13 10:27:46;;;;;;;5.55;4.72;;;21.40;99.90;;;;;;5114890;28;20020;-33
2023/05/13 10:30:12;;;;;;;4.28;3.88;;;21.80;99.90;;;;;;5098795;28;20107;-39
2023/05/13 10:32:39;;;;;;;9.38;4.63;;;21.90;99.90;;;;;;5104697;28;20512;-33
2023/05/13 10:35:12;;;;;;;7.55;4.22;;;21.50;99.90;;;;;;5113123;28;20027;-36
2023/05/13 10:38:08;;;;;;;5.47;4.07;;;21.60;99.90;;;;;;5116213;28;20387;-33
2023/05/13 10:41:13;;;;;;;6.70;4.90;;;21.40;99.90;;;;;;5111759;28;20495;-38
2023/05/13 10:43:40;;;;;;;9.98;4.22;;;21.50;99.90;;;;;;5109334;28;20512;-39
2023/05/13 10:46:11;;;;;;;5.78;4.70;;;21.40;99.90;;;;;;5095131;28;20031;-42
2023/05/13 10:48:48;;;;;;;6.00;4.35;;;21.30;99.90;;;;;;5096357;28;20031;-38
2023/05/13 10:51:16;;;;;;;10.90;4.63;;;21.40;99.90;;;;;;5103345;28;20124;-38
2023/05/13 10:55:01;;;;;;;11.00;5.15;;;21.50;99.90;;;;;;5080243;28;20333;-34
2023/05/13 10:57:36;;;;;;;10.45;4.32;;;21.40;99.90;;;;;;5070184;28;20377;-35
2023/05/13 11:00:14;;;;;;;8.07;4.60;;;21.40;99.90;;;;;;5068609;28;20016;-33
2023/05/13 11:02:39;;;;;;;14.27;4.32;;;21.60;99.90;;;;;;5070226;28;20431;-34
2023/05/13 11:05:05;;;;;;;7.97;4.20;;;21.90;99.90;;;;;;5068822;28;20036;-33
2023/05/13 11:07:31;;;;;;;6.55;3.92;;;22.00;99.90;;;;;;5069930;28;20481;-35
2023/05/13 11:09:58;;;;;;;8.57;4.43;;;22.10;99.90;;;;;;5069106;28;20027;-36
2023/05/13 11:12:24;;;;;;;9.18;4.43;;;22.10;99.90;;;;;;5069655;28;20477;-34
2023/05/13 11:14:54;;;;;;;10.45;4.68;;;22.00;99.90;;;;;;5069994;28;20031;-37
2023/05/13 11:17:20;;;;;;;10.32;4.63;;;22.10;99.90;;;;;;5069643;28;20035;-38
2023/05/13 11:19:47;;;;;;;8.85;4.57;;;21.70;99.90;;;;;;5062765;28;20424;-34
2023/05/13 11:22:16;;;;;;;9.20;4.80;;;21.70;99.90;;;;;;5069641;28;20037;-35
2023/05/13 11:25:01;;;;;;;11.30;5.60;;;21.70;99.90;;;;;;5069440;28;20162;-31
2023/05/13 11:27:31;;;;;;;8.30;4.45;;;21.60;99.90;;;;;;5069513;28;20032;-39
2023/05/13 11:29:57;;;;;;;5.03;4.47;;;21.70;99.90;;;;;;5066817;28;20416;-39
2023/05/13 11:32:54;;;;;;;7.75;3.60;;;21.90;99.90;;;;;;5069109;28;20029;-32
2023/05/13 11:35:28;;;;;;;7.80;4.50;;;22.10;99.90;;;;;;5068326;28;20155;-35
2023/05/13 11:37:56;;;;;;;5.13;4.43;;;22.20;99.90;;;;;;5065327;28;20021;-36
2023/05/13 11:40:32;;;;;;;6.07;4.43;;;22.10;99.90;;;;;;5056443;28;20492;-43
2023/05/13 11:42:58;;;;;;;12.23;4.95;;;22.00;99.90;;;;;;5049309;28;20060;-34
2023/05/13 11:45:26;;;;;;;6.57;5.13;;;22.00;99.90;;;;;;5049052;28;20551;-34
2023/05/13 11:47:55;;;;;;;6.45;4.60;;;22.10;99.90;;;;;;5049445;28;20037;-34
2023/05/13 11:50:22;;;;;;;4.38;3.97;;;21.90;99.90;;;;;;5049275;28;20025;-32
2023/05/13 11:52:53;;;;;;;8.40;4.47;;;22.00;99.90;;;;;;5047576;28;20383;-34
2023/05/13 11:55:44;;;;;;;11.93;4.70;;;22.10;99.90;;;;;;5048952;28;20688;-34
2023/05/13 11:58:14;;;;;;;8.13;4.40;;;22.30;99.90;;;;;;5048784;28;20401;-36
2023/05/13 12:00:40;;;;;;;15.02;5.07;;;22.20;99.90;;;;;;5049200;28;20025;-36
2023/05/13 12:03:12;;;;;;;8.10;4.93;;;22.30;99.90;;;;;;5048873;28;20482;-35
2023/05/13 12:05:38;;;;;;;4.53;4.03;;;22.30;99.90;;;;;;5038680;28;20380;-39
2023/05/13 12:08:08;;;;;;;5.57;3.43;;;22.30;99.90;;;;;;5035801;28;20022;-37
2023/05/13 12:10:34;;;;;;;5.93;3.55;;;22.20;99.90;;;;;;5035318;28;20483;-37
2023/05/13 12:13:00;;;;;;;8.30;3.95;;;22.20;99.90;;;;;;5035558;28;20072;-32
2023/05/13 12:15:27;;;;;;;5.72;4.40;;;22.20;99.90;;;;;;5035570;28;20025;-33
2023/05/13 12:17:53;;;;;;;3.88;3.58;;;22.10;99.90;;;;;;5035358;28;20043;-35
2023/05/13 12:20:22;;;;;;;8.95;3.80;;;22.20;99.90;;;;;;5043533;28;20016;-35
2023/05/13 12:22:49;;;;;;;6.70;4.35;;;22.40;99.90;;;;;;5055480;28;20087;-36
2023/05/13 12:25:33;;;;;;;6.00;4.18;;;22.50;99.90;;;;;;5055109;28;20474;-34
2023/05/13 12:28:05;;;;;;;6.78;4.78;;;22.50;99.90;;;;;;5055057;28;20040;-38
2023/05/13 12:30:36;;;;;;;5.65;3.58;;;22.30;99.90;;;;;;5055088;28;20025;-38
2023/05/13 12:33:05;;;;;;;4.30;3.90;;;22.10;99.90;;;;;;5053719;28;20051;-37
2023/05/13 12:35:32;;;;;;;5.38;4.20;;;22.30;99.90;;;;;;5055187;28;20469;-34
2023/05/13 12:38:04;;;;;;;4.47;3.72;;;22.20;99.90;;;;;;5054997;28;20022;-32
2023/05/13 12:40:30;;;;;;;4.82;4.13;;;22.50;99.90;;;;;;5055103;28;20477;-32
2023/05/13 12:43:00;;;;;;;14.27;4.00;;;22.70;99.90;;;;;;5054857;28;20055;-34
2023/05/13 12:45:31;;;;;;;7.15;4.50;;;22.90;99.90;;;;;;5054741;28;20054;-32